sensor_id;sensor_type;location;lat;lon;timestamp;P1;durP1;ratioP1;P2;durP2;ratioP2
21647;SDS011;10985;54.182;7.890;2023-04-24T00:02:02;18.20;;;8.55;;
21647;SDS011;10985;54.182;7.890;2023-04-24T00:04:28;17.25;;;8.68;;
21647;SDS011;10985;54.182;7.890;2023-04-24T00:06:55;21.00;;;9.05;;
21647;SDS011;10985;54.182;7.890;2023-04-24T00:09:21;18.15;;;9.07;;
21647;SDS011;10985;54.182;7.890;2023-04-24T00:11:47;17.27;;;8.85;;
21647;SDS011;10985;54.182;7.890;2023-04-24T00:14:13;23.40;;;9.98;;
21647;SDS011;10985;54.182;7.890;2023-04-24T00:16:39;20.60;;;11.30;;
21647;SDS011;10985;54.182;7.890;2023-04-24T00:19:04;19.00;;;11.38;;
21647;SDS011;10985;54.182;7.890;2023-04-24T00:21:31;16.48;;;9.85;;
21647;SDS011;10985;54.182;7.890;2023-04-24T00:23:57;22.90;;;10.10;;
21647;SDS011;10985;54.182;7.890;2023-04-24T00:26:23;22.67;;;10.40;;
21647;SDS011;10985;54.182;7.890;2023-04-24T00:28:49;18.80;;;9.65;;
21647;SDS011;10985;54.182;7.890;2023-04-24T00:31:14;17.75;;;10.35;;
21647;SDS011;10985;54.182;7.890;2023-04-24T00:33:40;22.48;;;11.30;;
21647;SDS011;10985;54.182;7.890;2023-04-24T00:36:05;20.98;;;10.75;;
21647;SDS011;10985;54.182;7.890;2023-04-24T00:38:32;18.58;;;10.50;;
21647;SDS011;10985;54.182;7.890;2023-04-24T00:40:57;23.65;;;10.70;;
21647;SDS011;10985;54.182;7.890;2023-04-24T00:43:23;21.27;;;10.05;;
21647;SDS011;10985;54.182;7.890;2023-04-24T00:45:48;19.52;;;9.55;;
21647;SDS011;10985;54.182;7.890;2023-04-24T00:48:14;24.13;;;10.10;;
21647;SDS011;10985;54.182;7.890;2023-04-24T00:50:41;22.67;;;9.82;;
21647;SDS011;10985;54.182;7.890;2023-04-24T00:53:07;20.48;;;9.35;;
21647;SDS011;10985;54.182;7.890;2023-04-24T00:55:32;24.70;;;9.27;;
21647;SDS011;10985;54.182;7.890;2023-04-24T00:57:58;20.55;;;9.32;;
21647;SDS011;10985;54.182;7.890;2023-04-24T01:00:24;29.13;;;9.57;;
21647;SDS011;10985;54.182;7.890;2023-04-24T01:02:50;23.42;;;9.85;;
21647;SDS011;10985;54.182;7.890;2023-04-24T01:05:17;27.95;;;11.07;;
21647;SDS011;10985;54.182;7.890;2023-04-24T01:07:44;30.13;;;9.50;;
21647;SDS011;10985;54.182;7.890;2023-04-24T01:10:13;20.30;;;9.43;;
21647;SDS011;10985;54.182;7.890;2023-04-24T01:12:39;43.90;;;11.43;;
21647;SDS011;10985;54.182;7.890;2023-04-24T01:15:05;21.48;;;9.32;;
21647;SDS011;10985;54.182;7.890;2023-04-24T01:17:34;31.27;;;11.05;;
21647;SDS011;10985;54.182;7.890;2023-04-24T01:20:00;23.20;;;10.18;;
21647;SDS011;10985;54.182;7.890;2023-04-24T01:22:26;48.95;;;12.57;;
21647;SDS011;10985;54.182;7.890;2023-04-24T01:24:52;55.72;;;11.38;;
21647;SDS011;10985;54.182;7.890;2023-04-24T01:27:18;57.15;;;12.13;;
21647;SDS011;10985;54.182;7.890;2023-04-24T01:29:44;41.47;;;11.93;;
21647;SDS011;10985;54.182;7.890;2023-04-24T01:32:10;44.55;;;12.50;;
21647;SDS011;10985;54.182;7.890;2023-04-24T01:34:36;43.53;;;11.95;;
21647;SDS011;10985;54.182;7.890;2023-04-24T01:37:02;32.45;;;10.60;;
21647;SDS011;10985;54.182;7.890;2023-04-24T01:39:28;41.90;;;11.73;;
21647;SDS011;10985;54.182;7.890;2023-04-24T01:41:54;54.33;;;12.73;;
21647;SDS011;10985;54.182;7.890;2023-04-24T01:44:20;32.38;;;12.00;;
21647;SDS011;10985;54.182;7.890;2023-04-24T01:46:46;27.42;;;12.02;;
21647;SDS011;10985;54.182;7.890;2023-04-24T01:49:11;31.48;;;12.30;;
21647;SDS011;10985;54.182;7.890;2023-04-24T01:51:37;36.15;;;13.00;;
21647;SDS011;10985;54.182;7.890;2023-04-24T01:54:02;44.42;;;13.13;;
21647;SDS011;10985;54.182;7.890;2023-04-24T01:56:31;39.03;;;15.25;;
21647;SDS011;10985;54.182;7.890;2023-04-24T01:59:00;48.38;;;16.40;;
21647;SDS011;10985;54.182;7.890;2023-04-24T02:01:31;37.10;;;16.85;;
21647;SDS011;10985;54.182;7.890;2023-04-24T02:04:00;51.92;;;19.52;;
21647;SDS011;10985;54.182;7.890;2023-04-24T02:06:26;50.40;;;20.00;;
21647;SDS011;10985;54.182;7.890;2023-04-24T02:08:51;59.30;;;24.02;;
21647;SDS011;10985;54.182;7.890;2023-04-24T02:11:17;69.40;;;27.25;;
21647;SDS011;10985;54.182;7.890;2023-04-24T02:13:43;84.28;;;30.83;;
21647;SDS011;10985;54.182;7.890;2023-04-24T02:16:09;83.72;;;32.85;;
21647;SDS011;10985;54.182;7.890;2023-04-24T02:18:35;74.93;;;33.58;;
21647;SDS011;10985;54.182;7.890;2023-04-24T02:21:00;84.45;;;34.92;;
21647;SDS011;10985;54.182;7.890;2023-04-24T02:23:26;80.65;;;35.80;;
21647;SDS011;10985;54.182;7.890;2023-04-24T02:25:52;88.82;;;36.47;;
21647;SDS011;10985;54.182;7.890;2023-04-24T02:28:18;85.30;;;35.38;;
21647;SDS011;10985;54.182;7.890;2023-04-24T02:30:44;71.60;;;34.33;;
21647;SDS011;10985;54.182;7.890;2023-04-24T02:33:10;74.45;;;36.67;;
21647;SDS011;10985;54.182;7.890;2023-04-24T02:35:36;90.28;;;39.13;;
21647;SDS011;10985;54.182;7.890;2023-04-24T02:38:02;56.70;;;28.85;;
21647;SDS011;10985;54.182;7.890;2023-04-24T02:40:28;26.17;;;16.67;;
21647;SDS011;10985;54.182;7.890;2023-04-24T02:42:53;10.32;;;8.70;;
21647;SDS011;10985;54.182;7.890;2023-04-24T02:45:19;7.38;;;6.57;;
21647;SDS011;10985;54.182;7.890;2023-04-24T02:47:44;7.10;;;6.13;;
21647;SDS011;10985;54.182;7.890;2023-04-24T02:50:10;6.32;;;5.50;;
21647;SDS011;10985;54.182;7.890;2023-04-24T02:52:35;7.30;;;4.70;;
21647;SDS011;10985;54.182;7.890;2023-04-24T02:55:01;15.88;;;5.82;;
21647;SDS011;10985;54.182;7.890;2023-04-24T02:57:27;14.80;;;4.65;;
21647;SDS011;10985;54.182;7.890;2023-04-24T02:59:52;9.18;;;4.78;;
21647;SDS011;10985;54.182;7.890;2023-04-24T03:02:18;9.25;;;4.43;;
21647;SDS011;10985;54.182;7.890;2023-04-24T03:04:43;7.32;;;4.30;;
21647;SDS011;10985;54.182;7.890;2023-04-24T03:07:09;11.90;;;4.47;;
21647;SDS011;10985;54.182;7.890;2023-04-24T03:09:34;10.70;;;3.78;;
21647;SDS011;10985;54.182;7.890;2023-04-24T03:12:00;8.27;;;5.00;;
21647;SDS011;10985;54.182;7.890;2023-04-24T03:14:25;13.32;;;4.50;;
21647;SDS011;10985;54.182;7.890;2023-04-24T03:16:51;9.57;;;4.28;;
21647;SDS011;10985;54.182;7.890;2023-04-24T03:19:16;9.60;;;4.80;;
21647;SDS011;10985;54.182;7.890;2023-04-24T03:21:42;11.05;;;5.13;;
21647;SDS011;10985;54.182;7.890;2023-04-24T03:24:08;11.15;;;5.30;;
21647;SDS011;10985;54.182;7.890;2023-04-24T03:26:34;10.57;;;4.97;;
21647;SDS011;10985;54.182;7.890;2023-04-24T03:29:00;16.48;;;5.05;;
21647;SDS011;10985;54.182;7.890;2023-04-24T03:31:26;11.23;;;5.50;;
21647;SDS011;10985;54.182;7.890;2023-04-24T03:33:51;16.70;;;6.55;;
21647;SDS011;10985;54.182;7.890;2023-04-24T03:36:17;11.40;;;5.72;;
21647;SDS011;10985;54.182;7.890;2023-04-24T03:38:44;14.32;;;6.28;;
21647;SDS011;10985;54.182;7.890;2023-04-24T03:41:10;12.60;;;6.40;;
21647;SDS011;10985;54.182;7.890;2023-04-24T03:43:35;12.32;;;6.22;;
21647;SDS011;10985;54.182;7.890;2023-04-24T03:46:01;16.08;;;6.75;;
21647;SDS011;10985;54.182;7.890;2023-04-24T03:48:26;13.00;;;7.03;;
21647;SDS011;10985;54.182;7.890;2023-04-24T03:50:55;15.75;;;7.00;;
21647;SDS011;10985;54.182;7.890;2023-04-24T03:53:20;19.25;;;8.07;;
21647;SDS011;10985;54.182;7.890;2023-04-24T03:55:46;16.40;;;8.00;;
21647;SDS011;10985;54.182;7.890;2023-04-24T03:58:12;24.77;;;8.77;;
21647;SDS011;10985;54.182;7.890;2023-04-24T04:00:39;15.65;;;8.88;;
21647;SDS011;10985;54.182;7.890;2023-04-24T04:03:05;19.98;;;9.15;;
21647;SDS011;10985;54.182;7.890;2023-04-24T04:05:31;17.45;;;8.98;;
21647;SDS011;10985;54.182;7.890;2023-04-24T04:07:56;25.88;;;9.30;;
21647;SDS011;10985;54.182;7.890;2023-04-24T04:10:22;20.83;;;9.85;;
21647;SDS011;10985;54.182;7.890;2023-04-24T04:12:47;20.40;;;9.98;;
21647;SDS011;10985;54.182;7.890;2023-04-24T04:15:13;25.00;;;10.52;;
21647;SDS011;10985;54.182;7.890;2023-04-24T04:17:38;23.85;;;10.45;;
21647;SDS011;10985;54.182;7.890;2023-04-24T04:20:04;21.10;;;10.60;;
21647;SDS011;10985;54.182;7.890;2023-04-24T04:22:36;20.02;;;10.43;;
21647;SDS011;10985;54.182;7.890;2023-04-24T04:25:02;16.85;;;10.80;;
21647;SDS011;10985;54.182;7.890;2023-04-24T04:27:29;18.75;;;10.63;;
21647;SDS011;10985;54.182;7.890;2023-04-24T04:29:57;22.88;;;11.57;;
21647;SDS011;10985;54.182;7.890;2023-04-24T04:32:24;18.15;;;11.27;;
21647;SDS011;10985;54.182;7.890;2023-04-24T04:34:49;15.73;;;9.02;;
21647;SDS011;10985;54.182;7.890;2023-04-24T04:37:18;17.10;;;8.75;;
21647;SDS011;10985;54.182;7.890;2023-04-24T04:39:43;21.45;;;10.00;;
21647;SDS011;10985;54.182;7.890;2023-04-24T04:42:09;19.20;;;9.65;;
21647;SDS011;10985;54.182;7.890;2023-04-24T04:44:35;17.35;;;9.65;;
21647;SDS011;10985;54.182;7.890;2023-04-24T04:47:01;16.88;;;9.00;;
21647;SDS011;10985;54.182;7.890;2023-04-24T04:49:30;20.95;;;10.30;;
21647;SDS011;10985;54.182;7.890;2023-04-24T04:51:56;17.20;;;9.45;;
21647;SDS011;10985;54.182;7.890;2023-04-24T04:54:22;20.00;;;9.35;;
21647;SDS011;10985;54.182;7.890;2023-04-24T04:56:49;17.65;;;9.20;;
21647;SDS011;10985;54.182;7.890;2023-04-24T04:59:15;18.40;;;9.65;;
21647;SDS011;10985;54.182;7.890;2023-04-24T05:01:41;17.65;;;8.07;;
21647;SDS011;10985;54.182;7.890;2023-04-24T05:04:06;16.88;;;7.70;;
21647;SDS011;10985;54.182;7.890;2023-04-24T05:06:32;16.17;;;8.20;;
21647;SDS011;10985;54.182;7.890;2023-04-24T05:08:57;13.90;;;8.55;;
21647;SDS011;10985;54.182;7.890;2023-04-24T05:11:23;12.32;;;7.85;;
21647;SDS011;10985;54.182;7.890;2023-04-24T05:13:48;16.83;;;8.80;;
21647;SDS011;10985;54.182;7.890;2023-04-24T05:16:14;13.70;;;9.07;;
21647;SDS011;10985;54.182;7.890;2023-04-24T05:18:39;16.17;;;10.32;;
21647;SDS011;10985;54.182;7.890;2023-04-24T05:21:05;19.92;;;10.43;;
21647;SDS011;10985;54.182;7.890;2023-04-24T05:23:31;20.08;;;10.70;;
21647;SDS011;10985;54.182;7.890;2023-04-24T05:25:56;18.48;;;10.65;;
21647;SDS011;10985;54.182;7.890;2023-04-24T05:28:22;28.27;;;10.77;;
21647;SDS011;10985;54.182;7.890;2023-04-24T05:30:47;18.90;;;10.73;;
21647;SDS011;10985;54.182;7.890;2023-04-24T05:33:13;24.35;;;10.90;;
21647;SDS011;10985;54.182;7.890;2023-04-24T05:35:39;20.17;;;10.43;;
21647;SDS011;10985;54.182;7.890;2023-04-24T05:38:10;16.63;;;10.00;;
21647;SDS011;10985;54.182;7.890;2023-04-24T05:40:36;19.08;;;11.45;;
21647;SDS011;10985;54.182;7.890;2023-04-24T05:43:01;22.92;;;11.63;;
21647;SDS011;10985;54.182;7.890;2023-04-24T05:45:27;17.58;;;11.77;;
21647;SDS011;10985;54.182;7.890;2023-04-24T05:47:52;22.00;;;12.20;;
21647;SDS011;10985;54.182;7.890;2023-04-24T05:50:18;17.92;;;11.65;;
21647;SDS011;10985;54.182;7.890;2023-04-24T05:52:44;24.98;;;10.98;;
21647;SDS011;10985;54.182;7.890;2023-04-24T05:55:09;18.55;;;11.07;;
21647;SDS011;10985;54.182;7.890;2023-04-24T05:57:35;26.13;;;13.10;;
21647;SDS011;10985;54.182;7.890;2023-04-24T06:00:00;26.27;;;12.23;;
21647;SDS011;10985;54.182;7.890;2023-04-24T06:02:26;27.50;;;12.98;;
21647;SDS011;10985;54.182;7.890;2023-04-24T06:04:52;35.30;;;13.38;;
21647;SDS011;10985;54.182;7.890;2023-04-24T06:07:18;27.55;;;12.73;;
21647;SDS011;10985;54.182;7.890;2023-04-24T06:09:43;26.85;;;14.25;;
21647;SDS011;10985;54.182;7.890;2023-04-24T06:12:09;25.33;;;13.15;;
21647;SDS011;10985;54.182;7.890;2023-04-24T06:14:34;33.08;;;14.48;;
21647;SDS011;10985;54.182;7.890;2023-04-24T06:17:00;38.35;;;15.88;;
21647;SDS011;10985;54.182;7.890;2023-04-24T06:19:25;31.30;;;14.88;;
21647;SDS011;10985;54.182;7.890;2023-04-24T06:21:51;34.42;;;16.17;;
21647;SDS011;10985;54.182;7.890;2023-04-24T06:24:16;35.05;;;15.73;;
21647;SDS011;10985;54.182;7.890;2023-04-24T06:26:42;36.10;;;15.90;;
21647;SDS011;10985;54.182;7.890;2023-04-24T06:29:07;37.00;;;18.35;;
21647;SDS011;10985;54.182;7.890;2023-04-24T06:31:33;35.75;;;17.88;;
21647;SDS011;10985;54.182;7.890;2023-04-24T06:34:02;32.33;;;16.95;;
21647;SDS011;10985;54.182;7.890;2023-04-24T06:36:28;32.05;;;16.40;;
21647;SDS011;10985;54.182;7.890;2023-04-24T06:38:54;33.17;;;16.05;;
21647;SDS011;10985;54.182;7.890;2023-04-24T06:41:19;28.77;;;16.65;;
21647;SDS011;10985;54.182;7.890;2023-04-24T06:43:45;36.60;;;15.50;;
21647;SDS011;10985;54.182;7.890;2023-04-24T06:46:10;33.85;;;16.52;;
21647;SDS011;10985;54.182;7.890;2023-04-24T06:48:36;32.03;;;17.60;;
21647;SDS011;10985;54.182;7.890;2023-04-24T06:51:02;36.58;;;18.48;;
21647;SDS011;10985;54.182;7.890;2023-04-24T06:53:28;34.40;;;20.17;;
21647;SDS011;10985;54.182;7.890;2023-04-24T06:55:53;42.03;;;19.05;;
21647;SDS011;10985;54.182;7.890;2023-04-24T06:58:19;30.25;;;18.67;;
21647;SDS011;10985;54.182;7.890;2023-04-24T07:00:45;37.95;;;19.50;;
21647;SDS011;10985;54.182;7.890;2023-04-24T07:03:11;41.08;;;22.17;;
21647;SDS011;10985;54.182;7.890;2023-04-24T07:05:36;40.17;;;22.17;;
21647;SDS011;10985;54.182;7.890;2023-04-24T07:08:03;42.00;;;22.67;;
21647;SDS011;10985;54.182;7.890;2023-04-24T07:10:28;35.95;;;22.70;;
21647;SDS011;10985;54.182;7.890;2023-04-24T07:12:55;40.25;;;21.67;;
21647;SDS011;10985;54.182;7.890;2023-04-24T07:15:23;34.70;;;20.58;;
21647;SDS011;10985;54.182;7.890;2023-04-24T07:17:49;42.50;;;21.23;;
21647;SDS011;10985;54.182;7.890;2023-04-24T07:20:15;41.05;;;21.08;;
21647;SDS011;10985;54.182;7.890;2023-04-24T07:22:41;38.15;;;20.50;;
21647;SDS011;10985;54.182;7.890;2023-04-24T07:25:06;34.50;;;20.42;;
21647;SDS011;10985;54.182;7.890;2023-04-24T07:27:33;30.98;;;18.63;;
21647;SDS011;10985;54.182;7.890;2023-04-24T07:29:59;33.58;;;20.05;;
21647;SDS011;10985;54.182;7.890;2023-04-24T07:32:25;44.80;;;20.98;;
21647;SDS011;10985;54.182;7.890;2023-04-24T07:34:51;39.92;;;19.98;;
21647;SDS011;10985;54.182;7.890;2023-04-24T07:37:16;37.75;;;19.65;;
21647;SDS011;10985;54.182;7.890;2023-04-24T07:39:42;41.90;;;21.40;;
21647;SDS011;10985;54.182;7.890;2023-04-24T07:42:07;37.15;;;19.85;;
21647;SDS011;10985;54.182;7.890;2023-04-24T07:44:33;41.95;;;20.50;;
21647;SDS011;10985;54.182;7.890;2023-04-24T07:46:58;39.17;;;19.45;;
21647;SDS011;10985;54.182;7.890;2023-04-24T07:49:24;43.00;;;19.17;;
21647;SDS011;10985;54.182;7.890;2023-04-24T07:51:50;45.72;;;19.08;;
21647;SDS011;10985;54.182;7.890;2023-04-24T07:54:15;43.58;;;18.98;;
21647;SDS011;10985;54.182;7.890;2023-04-24T07:56:43;38.30;;;18.83;;
21647;SDS011;10985;54.182;7.890;2023-04-24T07:59:09;46.05;;;18.08;;
21647;SDS011;10985;54.182;7.890;2023-04-24T08:01:35;35.80;;;17.67;;
21647;SDS011;10985;54.182;7.890;2023-04-24T08:04:01;34.60;;;17.88;;
21647;SDS011;10985;54.182;7.890;2023-04-24T08:06:27;33.15;;;17.25;;
21647;SDS011;10985;54.182;7.890;2023-04-24T08:08:55;27.75;;;18.05;;
21647;SDS011;10985;54.182;7.890;2023-04-24T08:11:21;37.70;;;18.20;;
21647;SDS011;10985;54.182;7.890;2023-04-24T08:13:46;38.42;;;20.50;;
21647;SDS011;10985;54.182;7.890;2023-04-24T08:16:12;45.13;;;21.23;;
21647;SDS011;10985;54.182;7.890;2023-04-24T08:18:37;42.15;;;20.52;;
21647;SDS011;10985;54.182;7.890;2023-04-24T08:21:03;38.95;;;20.05;;
21647;SDS011;10985;54.182;7.890;2023-04-24T08:23:29;41.20;;;18.85;;
21647;SDS011;10985;54.182;7.890;2023-04-24T08:25:54;38.55;;;18.60;;
21647;SDS011;10985;54.182;7.890;2023-04-24T08:28:20;32.05;;;17.38;;
21647;SDS011;10985;54.182;7.890;2023-04-24T08:30:46;28.23;;;15.18;;
21647;SDS011;10985;54.182;7.890;2023-04-24T08:33:13;25.67;;;13.93;;
21647;SDS011;10985;54.182;7.890;2023-04-24T08:35:39;21.40;;;13.50;;
21647;SDS011;10985;54.182;7.890;2023-04-24T08:38:05;25.85;;;13.40;;
21647;SDS011;10985;54.182;7.890;2023-04-24T08:40:30;17.52;;;11.45;;
21647;SDS011;10985;54.182;7.890;2023-04-24T08:42:59;25.42;;;11.55;;
21647;SDS011;10985;54.182;7.890;2023-04-24T08:45:25;15.13;;;9.70;;
21647;SDS011;10985;54.182;7.890;2023-04-24T08:47:51;14.07;;;8.70;;
21647;SDS011;10985;54.182;7.890;2023-04-24T08:50:19;11.15;;;7.07;;
21647;SDS011;10985;54.182;7.890;2023-04-24T08:52:45;11.75;;;7.53;;
21647;SDS011;10985;54.182;7.890;2023-04-24T08:55:14;11.82;;;7.03;;
21647;SDS011;10985;54.182;7.890;2023-04-24T08:57:41;11.23;;;6.47;;
21647;SDS011;10985;54.182;7.890;2023-04-24T09:00:09;10.73;;;7.03;;
21647;SDS011;10985;54.182;7.890;2023-04-24T09:02:36;14.80;;;9.90;;
21647;SDS011;10985;54.182;7.890;2023-04-24T09:05:03;16.35;;;10.68;;
21647;SDS011;10985;54.182;7.890;2023-04-24T09:07:30;8.70;;;6.20;;
21647;SDS011;10985;54.182;7.890;2023-04-24T09:09:58;13.98;;;5.25;;
21647;SDS011;10985;54.182;7.890;2023-04-24T09:12:24;8.93;;;4.88;;
21647;SDS011;10985;54.182;7.890;2023-04-24T09:14:50;11.40;;;4.57;;
21647;SDS011;10985;54.182;7.890;2023-04-24T09:17:16;7.85;;;3.58;;
21647;SDS011;10985;54.182;7.890;2023-04-24T09:19:42;7.22;;;3.88;;
21647;SDS011;10985;54.182;7.890;2023-04-24T09:22:07;4.03;;;3.42;;
21647;SDS011;10985;54.182;7.890;2023-04-24T09:24:34;6.07;;;3.40;;
21647;SDS011;10985;54.182;7.890;2023-04-24T09:27:00;8.90;;;3.78;;
21647;SDS011;10985;54.182;7.890;2023-04-24T09:29:28;8.05;;;3.50;;
21647;SDS011;10985;54.182;7.890;2023-04-24T09:31:54;4.20;;;3.40;;
21647;SDS011;10985;54.182;7.890;2023-04-24T09:34:21;13.18;;;4.05;;
21647;SDS011;10985;54.182;7.890;2023-04-24T09:36:48;7.47;;;3.50;;
21647;SDS011;10985;54.182;7.890;2023-04-24T09:39:15;11.38;;;3.70;;
21647;SDS011;10985;54.182;7.890;2023-04-24T09:41:44;8.65;;;3.83;;
21647;SDS011;10985;54.182;7.890;2023-04-24T09:44:14;6.80;;;3.30;;
21647;SDS011;10985;54.182;7.890;2023-04-24T09:46:41;6.03;;;3.60;;
21647;SDS011;10985;54.182;7.890;2023-04-24T09:49:20;10.93;;;3.88;;
21647;SDS011;10985;54.182;7.890;2023-04-24T09:51:49;10.63;;;3.58;;
21647;SDS011;10985;54.182;7.890;2023-04-24T09:54:19;12.00;;;4.15;;
21647;SDS011;10985;54.182;7.890;2023-04-24T09:56:46;9.10;;;3.63;;
21647;SDS011;10985;54.182;7.890;2023-04-24T09:59:14;7.10;;;3.85;;
21647;SDS011;10985;54.182;7.890;2023-04-24T10:01:43;9.18;;;4.40;;
21647;SDS011;10985;54.182;7.890;2023-04-24T10:04:20;6.88;;;3.47;;
21647;SDS011;10985;54.182;7.890;2023-04-24T10:06:46;6.30;;;3.40;;
21647;SDS011;10985;54.182;7.890;2023-04-24T10:09:13;12.65;;;3.63;;
21647;SDS011;10985;54.182;7.890;2023-04-24T10:11:41;7.15;;;3.15;;
21647;SDS011;10985;54.182;7.890;2023-04-24T10:14:09;10.55;;;3.80;;
21647;SDS011;10985;54.182;7.890;2023-04-24T10:16:36;14.07;;;3.65;;
21647;SDS011;10985;54.182;7.890;2023-04-24T10:19:03;7.05;;;3.45;;
21647;SDS011;10985;54.182;7.890;2023-04-24T10:21:28;10.27;;;3.67;;
21647;SDS011;10985;54.182;7.890;2023-04-24T10:23:55;12.50;;;3.70;;
21647;SDS011;10985;54.182;7.890;2023-04-24T10:26:20;6.40;;;3.72;;
21647;SDS011;10985;54.182;7.890;2023-04-24T10:28:47;11.82;;;4.00;;
21647;SDS011;10985;54.182;7.890;2023-04-24T10:31:13;14.73;;;5.32;;
21647;SDS011;10985;54.182;7.890;2023-04-24T10:33:40;20.30;;;6.93;;
21647;SDS011;10985;54.182;7.890;2023-04-24T10:36:07;15.07;;;7.60;;
21647;SDS011;10985;54.182;7.890;2023-04-24T10:38:38;17.52;;;8.05;;
21647;SDS011;10985;54.182;7.890;2023-04-24T10:41:07;25.27;;;7.90;;
21647;SDS011;10985;54.182;7.890;2023-04-24T10:43:45;24.30;;;8.13;;
21647;SDS011;10985;54.182;7.890;2023-04-24T10:46:11;24.20;;;8.52;;
21647;SDS011;10985;54.182;7.890;2023-04-24T10:48:44;26.70;;;10.30;;
21647;SDS011;10985;54.182;7.890;2023-04-24T10:51:21;23.38;;;11.25;;
21647;SDS011;10985;54.182;7.890;2023-04-24T10:53:47;33.50;;;14.15;;
21647;SDS011;10985;54.182;7.890;2023-04-24T10:56:17;23.98;;;12.38;;
21647;SDS011;10985;54.182;7.890;2023-04-24T10:58:43;32.97;;;13.60;;
21647;SDS011;10985;54.182;7.890;2023-04-24T11:01:29;26.67;;;13.63;;
21647;SDS011;10985;54.182;7.890;2023-04-24T11:03:57;25.45;;;13.43;;
21647;SDS011;10985;54.182;7.890;2023-04-24T11:06:34;26.23;;;12.70;;
21647;SDS011;10985;54.182;7.890;2023-04-24T11:09:05;23.13;;;12.95;;
21647;SDS011;10985;54.182;7.890;2023-04-24T11:11:32;31.05;;;13.98;;
21647;SDS011;10985;54.182;7.890;2023-04-24T11:16:27;36.13;;;14.90;;
21647;SDS011;10985;54.182;7.890;2023-04-24T11:21:32;25.85;;;14.77;;
21647;SDS011;10985;54.182;7.890;2023-04-24T11:23:58;26.85;;;12.88;;
21647;SDS011;10985;54.182;7.890;2023-04-24T11:26:23;31.15;;;13.60;;
21647;SDS011;10985;54.182;7.890;2023-04-24T11:28:55;25.92;;;13.32;;
21647;SDS011;10985;54.182;7.890;2023-04-24T11:31:41;22.02;;;12.98;;
21647;SDS011;10985;54.182;7.890;2023-04-24T11:34:18;27.08;;;12.25;;
21647;SDS011;10985;54.182;7.890;2023-04-24T11:36:44;23.85;;;12.27;;
21647;SDS011;10985;54.182;7.890;2023-04-24T11:39:11;22.60;;;11.32;;
21647;SDS011;10985;54.182;7.890;2023-04-24T11:41:36;22.65;;;12.85;;
21647;SDS011;10985;54.182;7.890;2023-04-24T11:44:03;26.80;;;12.60;;
21647;SDS011;10985;54.182;7.890;2023-04-24T11:46:30;17.42;;;13.30;;
21647;SDS011;10985;54.182;7.890;2023-04-24T11:48:56;32.15;;;14.00;;
21647;SDS011;10985;54.182;7.890;2023-04-24T11:51:23;27.15;;;12.50;;
21647;SDS011;10985;54.182;7.890;2023-04-24T11:53:50;24.42;;;11.43;;
21647;SDS011;10985;54.182;7.890;2023-04-24T11:56:19;24.83;;;10.18;;
21647;SDS011;10985;54.182;7.890;2023-04-24T11:58:48;22.80;;;10.95;;
21647;SDS011;10985;54.182;7.890;2023-04-24T12:01:16;25.27;;;11.00;;
21647;SDS011;10985;54.182;7.890;2023-04-24T12:03:45;26.52;;;11.65;;
21647;SDS011;10985;54.182;7.890;2023-04-24T12:06:12;21.10;;;10.50;;
21647;SDS011;10985;54.182;7.890;2023-04-24T12:08:38;28.02;;;10.88;;
21647;SDS011;10985;54.182;7.890;2023-04-24T12:11:04;22.60;;;10.85;;
21647;SDS011;10985;54.182;7.890;2023-04-24T12:13:34;20.05;;;11.13;;
21647;SDS011;10985;54.182;7.890;2023-04-24T12:16:04;22.08;;;11.70;;
21647;SDS011;10985;54.182;7.890;2023-04-24T12:18:30;24.88;;;10.80;;
21647;SDS011;10985;54.182;7.890;2023-04-24T12:21:14;25.33;;;10.13;;
21647;SDS011;10985;54.182;7.890;2023-04-24T12:23:42;20.13;;;10.48;;
21647;SDS011;10985;54.182;7.890;2023-04-24T12:26:08;26.27;;;9.65;;
21647;SDS011;10985;54.182;7.890;2023-04-24T12:28:34;23.67;;;9.85;;
21647;SDS011;10985;54.182;7.890;2023-04-24T12:31:01;16.55;;;9.98;;
21647;SDS011;10985;54.182;7.890;2023-04-24T12:33:27;34.08;;;11.63;;
21647;SDS011;10985;54.182;7.890;2023-04-24T12:35:53;26.60;;;10.90;;
21647;SDS011;10985;54.182;7.890;2023-04-24T12:38:21;26.48;;;11.27;;
21647;SDS011;10985;54.182;7.890;2023-04-24T12:41:10;23.13;;;10.20;;
21647;SDS011;10985;54.182;7.890;2023-04-24T12:43:37;25.15;;;9.88;;
21647;SDS011;10985;54.182;7.890;2023-04-24T12:46:02;25.92;;;10.60;;
21647;SDS011;10985;54.182;7.890;2023-04-24T12:48:29;23.75;;;10.82;;
21647;SDS011;10985;54.182;7.890;2023-04-24T12:50:58;30.23;;;11.13;;
21647;SDS011;10985;54.182;7.890;2023-04-24T12:53:26;23.70;;;10.15;;
21647;SDS011;10985;54.182;7.890;2023-04-24T12:55:54;21.45;;;11.30;;
21647;SDS011;10985;54.182;7.890;2023-04-24T12:58:20;27.00;;;11.50;;
21647;SDS011;10985;54.182;7.890;2023-04-24T13:00:45;26.50;;;11.00;;
21647;SDS011;10985;54.182;7.890;2023-04-24T13:03:11;27.27;;;11.00;;
21647;SDS011;10985;54.182;7.890;2023-04-24T13:05:37;22.85;;;10.93;;
21647;SDS011;10985;54.182;7.890;2023-04-24T13:08:03;32.58;;;11.55;;
21647;SDS011;10985;54.182;7.890;2023-04-24T13:10:28;26.55;;;10.90;;
21647;SDS011;10985;54.182;7.890;2023-04-24T13:12:54;21.95;;;11.82;;
21647;SDS011;10985;54.182;7.890;2023-04-24T13:15:19;24.35;;;11.65;;
21647;SDS011;10985;54.182;7.890;2023-04-24T13:17:45;28.52;;;11.40;;
21647;SDS011;10985;54.182;7.890;2023-04-24T13:20:10;24.08;;;12.05;;
21647;SDS011;10985;54.182;7.890;2023-04-24T13:22:36;25.92;;;12.38;;
21647;SDS011;10985;54.182;7.890;2023-04-24T13:25:02;21.13;;;11.02;;
21647;SDS011;10985;54.182;7.890;2023-04-24T13:27:28;26.35;;;10.10;;
21647;SDS011;10985;54.182;7.890;2023-04-24T13:29:53;23.67;;;10.93;;
21647;SDS011;10985;54.182;7.890;2023-04-24T13:32:19;19.88;;;11.25;;
21647;SDS011;10985;54.182;7.890;2023-04-24T13:34:45;26.83;;;11.30;;
21647;SDS011;10985;54.182;7.890;2023-04-24T13:37:11;25.70;;;11.65;;
21647;SDS011;10985;54.182;7.890;2023-04-24T13:39:36;23.15;;;11.65;;
21647;SDS011;10985;54.182;7.890;2023-04-24T13:42:02;33.40;;;12.80;;
21647;SDS011;10985;54.182;7.890;2023-04-24T13:44:28;18.77;;;12.00;;
21647;SDS011;10985;54.182;7.890;2023-04-24T13:46:54;28.08;;;12.55;;
21647;SDS011;10985;54.182;7.890;2023-04-24T13:49:21;25.67;;;11.10;;
21647;SDS011;10985;54.182;7.890;2023-04-24T13:51:49;28.95;;;11.27;;
21647;SDS011;10985;54.182;7.890;2023-04-24T13:54:16;27.00;;;10.40;;
21647;SDS011;10985;54.182;7.890;2023-04-24T13:56:41;28.02;;;10.02;;
21647;SDS011;10985;54.182;7.890;2023-04-24T13:59:07;25.05;;;9.85;;
21647;SDS011;10985;54.182;7.890;2023-04-24T14:01:33;20.05;;;9.63;;
21647;SDS011;10985;54.182;7.890;2023-04-24T14:03:59;32.25;;;9.77;;
21647;SDS011;10985;54.182;7.890;2023-04-24T14:06:24;21.73;;;8.70;;
21647;SDS011;10985;54.182;7.890;2023-04-24T14:08:50;27.48;;;9.73;;
21647;SDS011;10985;54.182;7.890;2023-04-24T14:11:16;24.10;;;9.05;;
21647;SDS011;10985;54.182;7.890;2023-04-24T14:13:43;18.90;;;8.65;;
21647;SDS011;10985;54.182;7.890;2023-04-24T14:16:09;21.05;;;8.02;;
21647;SDS011;10985;54.182;7.890;2023-04-24T14:18:35;20.50;;;8.05;;
21647;SDS011;10985;54.182;7.890;2023-04-24T14:21:01;28.98;;;8.18;;
21647;SDS011;10985;54.182;7.890;2023-04-24T14:23:30;20.00;;;6.97;;
21647;SDS011;10985;54.182;7.890;2023-04-24T14:25:56;22.00;;;6.97;;
21647;SDS011;10985;54.182;7.890;2023-04-24T14:28:22;20.63;;;6.97;;
21647;SDS011;10985;54.182;7.890;2023-04-24T14:30:48;22.60;;;7.32;;